Time;durP1;ratioP1;P1;durP2;ratioP2;P2;SDS_P1;SDS_P2;PMS_P1;PMS_P2;Temp;Humidity;BMP_temperature;BMP_pressure;BME280_temperature;BME280_humidity;BME280_pressure;Samples;Min_cycle;Max_cycle;Signal;HPM_P1;HPM_P2
2022/01/11 00:01:00;;;;;;;35.90;24.27;;;4.90;99.90;;;;;;5033525;28;20207;-71
2022/01/11 00:03:29;;;;;;;37.03;24.23;;;5.00;99.90;;;;;;5033798;28;20211;-71
2022/01/11 00:06:00;;;;;;;32.08;23.10;;;4.80;99.90;;;;;;5033500;28;20297;-71
2022/01/11 00:08:30;;;;;;;33.65;23.33;;;4.80;99.90;;;;;;5033647;28;20223;-71
2022/01/11 00:11:03;;;;;;;34.97;24.05;;;4.90;99.90;;;;;;5033383;28;20204;-71
2022/01/11 00:13:31;;;;;;;38.45;24.17;;;4.90;99.90;;;;;;5033330;28;20599;-71
2022/01/11 00:15:58;;;;;;;42.42;27.92;;;4.90;99.90;;;;;;5033081;28;20689;-71
2022/01/11 00:18:25;;;;;;;36.65;26.10;;;4.80;99.90;;;;;;5033079;28;20220;-71
2022/01/11 00:20:54;;;;;;;46.15;27.10;;;4.60;99.90;;;;;;5033034;28;20214;-71
2022/01/11 00:26:08;;;;;;;37.17;25.60;;;4.60;99.90;;;;;;5032884;28;20293;-71
2022/01/11 00:28:35;;;;;;;39.65;25.60;;;4.60;99.90;;;;;;5033722;28;20307;-71
2022/01/11 00:31:05;;;;;;;41.70;27.63;;;4.60;99.90;;;;;;5033094;28;20615;-71
2022/01/11 00:33:37;;;;;;;44.45;29.23;;;4.50;99.90;;;;;;5032170;28;20200;-70
2022/01/11 00:36:07;;;;;;;41.08;27.33;;;4.40;99.90;;;;;;5032383;28;20295;-70
2022/01/11 00:38:37;;;;;;;43.67;27.80;;;4.20;99.90;;;;;;5032982;28;20278;-70
2022/01/11 00:41:07;;;;;;;41.88;26.65;;;4.10;99.90;;;;;;5032916;28;20291;-69
2022/01/11 00:43:35;;;;;;;40.90;25.63;;;4.10;99.90;;;;;;5032723;28;20216;-69
2022/01/11 00:46:03;;;;;;;44.00;25.95;;;4.30;99.90;;;;;;5032487;28;20465;-69
2022/01/11 00:48:30;;;;;;;44.80;26.38;;;4.30;99.90;;;;;;5044899;28;20233;-70
2022/01/11 00:51:00;;;;;;;42.17;26.60;;;4.20;99.90;;;;;;5053786;28;20573;-70
2022/01/11 00:53:28;;;;;;;37.75;25.50;;;4.30;99.90;;;;;;5053425;28;20207;-69
2022/01/11 00:55:55;;;;;;;38.20;26.70;;;4.40;99.90;;;;;;5053775;28;20210;-69
2022/01/11 00:58:22;;;;;;;43.85;27.92;;;4.40;99.90;;;;;;5053589;28;20258;-70
2022/01/11 01:00:50;;;;;;;42.95;26.73;;;4.30;99.90;;;;;;5054183;28;20290;-70
2022/01/11 01:03:17;;;;;;;41.35;27.90;;;4.30;99.90;;;;;;5054198;28;20290;-70
2022/01/11 01:05:45;;;;;;;49.60;28.63;;;4.20;99.90;;;;;;5054280;28;20204;-70
2022/01/11 01:08:11;;;;;;;49.42;30.50;;;4.10;99.90;;;;;;5054336;28;20228;-70
2022/01/11 01:10:45;;;;;;;47.42;30.30;;;4.00;99.90;;;;;;5054507;28;20772;-70
2022/01/11 01:13:15;;;;;;;47.25;29.58;;;3.90;99.90;;;;;;5054586;28;20285;-70
2022/01/11 01:15:42;;;;;;;45.75;29.98;;;3.90;99.90;;;;;;5054093;28;20199;-69
2022/01/11 01:18:11;;;;;;;44.22;30.88;;;3.90;99.90;;;;;;5055019;28;20220;-69
2022/01/11 01:20:37;;;;;;;49.40;30.00;;;3.80;99.90;;;;;;5055303;28;20203;-70
2022/01/11 01:23:04;;;;;;;46.20;30.60;;;3.70;99.90;;;;;;5054517;28;20211;-70
2022/01/11 01:25:31;;;;;;;50.25;31.88;;;3.80;99.90;;;;;;5053748;28;20294;-69
2022/01/11 01:27:59;;;;;;;56.08;31.67;;;3.90;99.90;;;;;;5053580;28;20227;-70
2022/01/11 01:30:26;;;;;;;55.42;32.88;;;3.90;99.90;;;;;;5053815;28;20290;-70
2022/01/11 01:32:54;;;;;;;50.95;31.40;;;3.90;99.90;;;;;;5054358;28;20199;-70
2022/01/11 01:35:25;;;;;;;50.95;32.55;;;3.80;99.90;;;;;;5054245;28;20578;-69
2022/01/11 01:37:52;;;;;;;50.08;30.95;;;3.80;99.90;;;;;;5054590;28;20237;-70
2022/01/11 01:40:19;;;;;;;47.92;31.10;;;3.70;99.90;;;;;;5054639;28;20235;-69
2022/01/11 01:42:48;;;;;;;52.58;32.50;;;3.70;99.90;;;;;;5053028;28;20290;-69
2022/01/11 01:45:17;;;;;;;50.35;31.52;;;3.70;99.90;;;;;;5057798;28;20281;-69
2022/01/11 01:47:44;;;;;;;51.50;31.80;;;3.70;99.90;;;;;;5057949;28;20725;-70
2022/01/11 01:50:11;;;;;;;50.92;31.35;;;3.80;99.90;;;;;;5056759;28;20203;-69
2022/01/11 01:52:39;;;;;;;50.00;32.28;;;4.00;99.90;;;;;;5057608;28;20294;-70
2022/01/11 01:55:07;;;;;;;47.88;31.90;;;4.00;99.90;;;;;;5057278;28;20203;-69
2022/01/11 01:57:34;;;;;;;47.38;31.17;;;4.10;99.90;;;;;;5056693;28;20709;-70
2022/01/11 02:00:07;;;;;;;50.42;31.00;;;4.20;99.90;;;;;;5057100;28;20566;-70
2022/01/11 02:02:36;;;;;;;43.85;30.20;;;4.20;99.90;;;;;;5056789;28;20281;-69
2022/01/11 02:05:05;;;;;;;44.05;28.80;;;4.40;99.90;;;;;;5056594;28;20203;-69
2022/01/11 02:07:33;;;;;;;46.47;28.63;;;4.50;99.90;;;;;;5056855;28;20226;-70
2022/01/11 02:10:01;;;;;;;47.13;29.25;;;4.70;99.90;;;;;;5056713;28;20588;-70
2022/01/11 02:12:28;;;;;;;41.30;27.40;;;4.80;99.90;;;;;;5056479;28;20211;-70
2022/01/11 02:14:55;;;;;;;43.08;27.77;;;4.80;99.90;;;;;;5056364;28;20298;-69
2022/01/11 02:17:21;;;;;;;39.63;28.92;;;4.80;99.90;;;;;;5056374;28;20200;-69
2022/01/11 02:19:50;;;;;;;44.72;29.65;;;4.70;99.90;;;;;;5056385;28;20223;-69
2022/01/11 02:22:18;;;;;;;43.58;27.83;;;4.60;99.90;;;;;;5056422;28;20213;-70
2022/01/11 02:24:44;;;;;;;36.97;27.17;;;4.70;99.90;;;;;;5056009;28;20211;-70
2022/01/11 02:27:12;;;;;;;41.33;27.80;;;4.80;99.90;;;;;;5055988;28;20318;-69
2022/01/11 02:29:39;;;;;;;43.65;27.85;;;4.70;99.90;;;;;;5055984;28;20322;-69
2022/01/11 02:32:07;;;;;;;41.90;26.95;;;4.80;99.90;;;;;;5056504;28;20199;-70
2022/01/11 02:34:33;;;;;;;38.00;26.80;;;4.80;99.90;;;;;;5055974;28;20210;-69
2022/01/11 02:37:00;;;;;;;44.83;28.42;;;4.70;99.90;;;;;;5055991;28;20306;-69
2022/01/11 02:39:28;;;;;;;41.90;28.15;;;4.60;99.90;;;;;;5056105;28;20314;-69
2022/01/11 02:41:58;;;;;;;51.75;29.58;;;4.60;99.90;;;;;;5055995;28;20298;-70
2022/01/11 02:44:25;;;;;;;45.92;29.92;;;4.50;99.90;;;;;;5055807;28;20203;-68
2022/01/11 02:46:52;;;;;;;46.67;30.48;;;4.40;99.90;;;;;;5055978;28;20245;-69
2022/01/11 02:49:19;;;;;;;46.78;29.83;;;4.30;99.90;;;;;;5056252;28;20231;-69
2022/01/11 02:51:46;;;;;;;44.65;29.60;;;4.30;99.90;;;;;;5056332;28;20203;-70
2022/01/11 02:54:13;;;;;;;48.22;30.40;;;4.10;99.90;;;;;;5056539;28;20617;-70
2022/01/11 02:56:41;;;;;;;52.78;31.33;;;4.00;99.90;;;;;;5056123;28;20200;-69
2022/01/11 02:59:10;;;;;;;50.67;31.35;;;4.00;99.90;;;;;;5056939;28;20229;-70
2022/01/11 03:01:37;;;;;;;47.30;30.90;;;4.00;99.90;;;;;;5056008;28;20661;-70
2022/01/11 03:04:04;;;;;;;50.08;30.77;;;4.00;99.90;;;;;;5055722;28;20204;-70
2022/01/11 03:06:31;;;;;;;48.92;30.58;;;4.10;99.90;;;;;;5055330;28;20666;-69
2022/01/11 03:08:58;;;;;;;46.42;30.08;;;4.10;99.90;;;;;;5055496;28;20314;-69
2022/01/11 03:11:31;;;;;;;49.00;29.55;;;4.20;99.90;;;;;;5055436;28;20298;-70
2022/01/11 03:14:03;;;;;;;42.65;27.85;;;4.30;99.90;;;;;;5055446;28;20199;-70
2022/01/11 03:16:30;;;;;;;44.70;27.70;;;4.40;99.90;;;;;;5054885;28;20214;-69
2022/01/11 03:18:57;;;;;;;41.22;27.35;;;4.60;99.90;;;;;;5055445;28;20628;-70
2022/01/11 03:21:26;;;;;;;39.28;27.15;;;4.60;99.90;;;;;;5055597;28;20214;-70
2022/01/11 03:23:53;;;;;;;48.22;28.77;;;4.60;99.90;;;;;;5055396;28;20701;-70
2022/01/11 03:26:20;;;;;;;37.80;25.88;;;4.80;99.90;;;;;;5054817;28;20559;-70
2022/01/11 03:28:47;;;;;;;43.15;28.48;;;4.90;99.90;;;;;;5055113;28;20232;-69
2022/01/11 03:31:15;;;;;;;37.78;25.75;;;5.00;99.90;;;;;;5055156;28;20551;-70
2022/01/11 03:33:42;;;;;;;38.95;26.98;;;5.00;99.90;;;;;;5055548;28;20295;-69
2022/01/11 03:36:09;;;;;;;48.03;30.23;;;5.00;99.90;;;;;;5054911;28;20294;-69
2022/01/11 03:38:36;;;;;;;40.40;27.15;;;5.00;99.90;;;;;;5055160;28;20226;-69
2022/01/11 03:41:03;;;;;;;40.53;27.13;;;4.80;99.90;;;;;;5055015;28;20199;-70
2022/01/11 03:43:30;;;;;;;45.38;28.30;;;4.90;99.90;;;;;;5054556;28;20211;-70
2022/01/11 03:45:57;;;;;;;42.30;27.70;;;4.80;99.90;;;;;;5054812;28;20660;-69
2022/01/11 03:48:25;;;;;;;44.67;27.40;;;4.80;99.90;;;;;;5054653;28;20265;-70
2022/01/11 03:50:53;;;;;;;40.08;27.83;;;4.80;99.90;;;;;;5054973;28;20205;-69
2022/01/11 03:53:24;;;;;;;43.60;28.90;;;4.60;99.90;;;;;;5054912;28;20203;-70
2022/01/11 03:56:11;;;;;;;39.75;27.45;;;4.50;99.90;;;;;;5054630;28;20538;-69
2022/01/11 03:58:39;;;;;;;46.42;27.67;;;4.50;99.90;;;;;;5054228;28;20216;-70
2022/01/11 04:01:05;;;;;;;43.58;28.20;;;4.70;99.90;;;;;;5054834;28;20289;-71
2022/01/11 04:03:34;;;;;;;46.30;28.65;;;4.50;99.90;;;;;;5055989;28;20210;-71
2022/01/11 04:06:01;;;;;;;42.72;29.35;;;4.30;99.90;;;;;;5055948;28;20204;-71
2022/01/11 04:08:28;;;;;;;44.20;29.70;;;4.20;99.90;;;;;;5055042;28;20711;-71
2022/01/11 04:10:55;;;;;;;44.85;28.13;;;4.20;99.90;;;;;;5055412;28;20293;-71
2022/01/11 04:13:22;;;;;;;43.78;29.30;;;4.20;99.90;;;;;;5055170;28;20210;-71
2022/01/11 04:15:49;;;;;;;45.45;29.15;;;4.10;99.90;;;;;;5055181;28;20204;-71
2022/01/11 04:18:16;;;;;;;50.75;29.83;;;4.10;99.90;;;;;;5055879;28;20228;-71
2022/01/11 04:20:44;;;;;;;48.65;30.40;;;4.00;99.90;;;;;;5055706;28;20551;-71
2022/01/11 04:23:13;;;;;;;46.55;30.13;;;4.00;99.90;;;;;;5055443;28;20218;-71
2022/01/11 04:25:40;;;;;;;53.88;32.20;;;3.90;99.90;;;;;;5055270;28;20199;-71
2022/01/11 04:28:07;;;;;;;46.15;30.50;;;4.00;99.90;;;;;;5055187;28;20229;-71
2022/01/11 04:30:34;;;;;;;43.88;29.10;;;4.00;99.90;;;;;;5055675;28;20294;-71
2022/01/11 04:33:02;;;;;;;47.65;30.95;;;4.00;99.90;;;;;;5055151;28;20265;-71
2022/01/11 04:35:29;;;;;;;46.25;31.08;;;4.00;99.90;;;;;;5054976;28;20261;-71
2022/01/11 04:40:35;;;;;;;45.15;28.35;;;4.20;99.90;;;;;;5783505;22;20239;-71
2022/01/11 04:43:02;;;;;;;43.47;29.15;;;4.10;99.90;;;;;;5014811;28;20307;-71
2022/01/11 04:45:29;;;;;;;42.47;28.60;;;4.20;99.90;;;;;;5015330;28;20279;-71
2022/01/11 04:47:56;;;;;;;43.63;28.40;;;4.30;99.90;;;;;;5015345;28;20299;-71
2022/01/11 04:50:24;;;;;;;46.13;28.92;;;4.30;99.90;;;;;;5015010;28;20222;-71
2022/01/11 04:52:52;;;;;;;39.50;27.90;;;4.30;99.90;;;;;;5015704;28;20275;-71
2022/01/11 04:55:18;;;;;;;42.70;29.20;;;4.40;99.90;;;;;;5016157;28;20291;-71
2022/01/11 04:57:47;;;;;;;48.33;30.30;;;4.40;99.90;;;;;;5016182;28;20207;-72
2022/01/11 05:00:16;;;;;;;46.05;30.20;;;4.30;99.90;;;;;;5016034;28;20253;-70
2022/01/11 05:02:43;;;;;;;51.28;31.00;;;4.30;99.90;;;;;;5016322;28;20225;-71
2022/01/11 05:05:10;;;;;;;48.97;31.00;;;4.20;99.90;;;;;;5016545;28;20232;-71
2022/01/11 05:07:37;;;;;;;47.75;31.55;;;4.20;99.90;;;;;;5016265;28;20232;-71
2022/01/11 05:10:05;;;;;;;54.33;32.80;;;4.10;99.90;;;;;;5015872;28;20209;-71
2022/01/11 05:12:34;;;;;;;53.95;34.47;;;4.10;99.90;;;;;;5016457;28;20589;-71
2022/01/11 05:15:02;;;;;;;52.10;33.38;;;4.10;99.90;;;;;;5016320;28;20303;-71
2022/01/11 05:17:28;;;;;;;48.80;32.03;;;4.00;99.90;;;;;;5016088;28;20204;-71
2022/01/11 05:19:55;;;;;;;47.13;31.73;;;4.10;99.90;;;;;;5018086;28;20299;-71
2022/01/11 05:22:22;;;;;;;57.30;35.35;;;4.00;99.90;;;;;;5019736;28;20316;-71
2022/01/11 05:24:49;;;;;;;53.88;35.45;;;4.00;99.90;;;;;;5019361;28;20200;-71
2022/01/11 05:27:16;;;;;;;50.45;32.90;;;3.90;99.90;;;;;;5017998;28;20213;-71
2022/01/11 05:29:43;;;;;;;53.30;34.80;;;3.80;99.90;;;;;;5017145;28;20204;-70
2022/01/11 05:32:11;;;;;;;58.47;35.30;;;3.80;99.90;;;;;;5017767;28;20235;-71
2022/01/11 05:34:38;;;;;;;51.72;35.00;;;3.70;99.90;;;;;;5017952;28;20296;-71
2022/01/11 05:37:04;;;;;;;57.55;34.00;;;3.70;99.90;;;;;;5017627;28;20311;-71
2022/01/11 05:39:31;;;;;;;53.50;34.03;;;3.70;99.90;;;;;;5017966;28;20296;-71
2022/01/11 05:41:59;;;;;;;55.17;35.08;;;3.70;99.90;;;;;;5016837;28;20710;-71
2022/01/11 05:44:26;;;;;;;59.90;35.03;;;3.70;99.90;;;;;;5017820;28;20215;-71
2022/01/11 05:46:53;;;;;;;54.17;33.92;;;3.70;99.90;;;;;;5017435;28;20217;-71
2022/01/11 05:49:21;;;;;;;55.92;33.28;;;3.60;99.90;;;;;;5017396;28;20315;-71
2022/01/11 05:51:48;;;;;;;56.00;34.70;;;3.60;99.90;;;;;;5017087;28;20229;-71
2022/01/11 05:54:15;;;;;;;53.15;33.58;;;3.60;99.90;;;;;;5017836;28;20209;-71
2022/01/11 05:56:41;;;;;;;55.10;34.70;;;3.60;99.90;;;;;;5017626;28;20629;-71
2022/01/11 05:59:08;;;;;;;51.67;34.10;;;3.60;99.90;;;;;;5017482;28;20211;-71
2022/01/11 06:01:35;;;;;;;52.92;33.75;;;3.70;99.90;;;;;;5017161;28;20225;-71
2022/01/11 06:04:02;;;;;;;48.53;33.42;;;3.70;99.90;;;;;;5017335;28;20319;-71
2022/01/11 06:06:30;;;;;;;47.70;31.70;;;3.80;99.90;;;;;;5018404;28;20300;-71
2022/01/11 06:08:59;;;;;;;47.83;32.10;;;3.90;99.90;;;;;;5017836;28;20226;-71
2022/01/11 06:11:26;;;;;;;46.40;31.52;;;4.00;99.90;;;;;;5017474;28;20236;-71
2022/01/11 06:13:53;;;;;;;48.45;31.70;;;4.10;99.90;;;;;;5017084;28;20299;-71
2022/01/11 06:16:21;;;;;;;43.70;29.48;;;4.30;99.90;;;;;;5017498;28;20232;-71
2022/01/11 06:18:48;;;;;;;43.15;28.13;;;4.40;99.90;;;;;;5018213;28;20264;-71
2022/01/11 06:21:14;;;;;;;36.28;26.23;;;4.60;99.90;;;;;;5017016;28;20713;-71
2022/01/11 06:23:43;;;;;;;39.47;27.23;;;4.70;99.90;;;;;;5017756;28;20216;-71
2022/01/11 06:26:10;;;;;;;41.13;28.13;;;4.70;99.90;;;;;;5017259;28;20219;-71
2022/01/11 06:28:36;;;;;;;45.47;27.92;;;4.70;99.90;;;;;;5017011;28;20221;-71
2022/01/11 06:31:03;;;;;;;43.83;29.02;;;4.80;99.90;;;;;;5015692;28;20224;-71
2022/01/11 06:33:30;;;;;;;44.67;28.48;;;4.90;99.90;;;;;;5016817;28;20631;-71
2022/01/11 06:35:57;;;;;;;38.33;27.90;;;4.80;99.90;;;;;;5016856;28;20212;-71
2022/01/11 06:38:24;;;;;;;41.20;28.05;;;4.80;99.90;;;;;;5016740;28;20200;-71
2022/01/11 06:40:52;;;;;;;39.83;28.60;;;4.80;99.90;;;;;;5016031;28;20214;-71
2022/01/11 06:43:19;;;;;;;44.05;27.63;;;4.70;99.90;;;;;;5016628;28;20219;-71
2022/01/11 06:45:46;;;;;;;40.90;28.40;;;4.80;99.90;;;;;;5016327;28;20201;-71
2022/01/11 06:48:13;;;;;;;42.90;28.05;;;4.90;99.90;;;;;;5016589;28;20292;-71
2022/01/11 06:50:40;;;;;;;44.08;29.08;;;4.90;99.90;;;;;;5016480;28;20205;-71
2022/01/11 06:53:07;;;;;;;45.38;28.00;;;4.90;99.90;;;;;;5016367;28;20204;-71
2022/01/11 06:55:34;;;;;;;45.33;28.30;;;4.90;99.90;;;;;;5016845;28;20208;-71
2022/01/11 06:58:02;;;;;;;52.35;30.20;;;5.00;99.90;;;;;;5016271;28;20209;-71
2022/01/11 07:00:29;;;;;;;45.67;30.42;;;4.90;99.90;;;;;;5015944;28;20296;-71
2022/01/11 07:02:55;;;;;;;47.85;31.27;;;4.70;99.90;;;;;;5016875;28;20644;-71
2022/01/11 07:05:22;;;;;;;51.75;32.17;;;4.60;99.90;;;;;;5016867;28;20333;-72
2022/01/11 07:07:50;;;;;;;48.00;29.10;;;4.50;99.90;;;;;;5017021;28;20205;-71
2022/01/11 07:10:17;;;;;;;51.58;33.70;;;4.40;99.90;;;;;;5016117;28;20255;-70
2022/01/11 07:12:44;;;;;;;51.38;33.65;;;4.40;99.90;;;;;;5016540;28;20315;-71
2022/01/11 07:15:12;;;;;;;52.78;32.15;;;4.30;99.90;;;;;;5017366;28;20292;-72
2022/01/11 07:17:41;;;;;;;49.92;30.90;;;4.10;99.90;;;;;;5017364;28;20204;-71
2022/01/11 07:20:09;;;;;;;52.35;33.53;;;4.10;99.90;;;;;;5017305;28;20247;-71
2022/01/11 07:22:37;;;;;;;50.97;32.05;;;4.00;99.90;;;;;;5016902;28;20720;-71
2022/01/11 07:25:04;;;;;;;45.95;31.52;;;4.10;99.90;;;;;;5016428;28;20287;-71
2022/01/11 07:27:31;;;;;;;53.30;32.90;;;4.10;99.90;;;;;;5016919;28;20201;-71
2022/01/11 07:29:58;;;;;;;52.20;33.80;;;4.10;99.90;;;;;;5016169;28;20735;-70
2022/01/11 07:32:27;;;;;;;50.17;34.15;;;4.10;99.90;;;;;;5016926;28;20220;-71
2022/01/11 07:34:54;;;;;;;54.05;33.55;;;4.10;99.90;;;;;;5017408;28;20209;-71
2022/01/11 07:37:21;;;;;;;51.88;33.30;;;4.00;99.90;;;;;;5017221;28;20640;-71
2022/01/11 07:39:47;;;;;;;54.70;35.42;;;4.00;99.90;;;;;;5016900;28;20288;-71
2022/01/11 07:42:14;;;;;;;54.33;33.10;;;3.90;99.90;;;;;;5017275;28;20323;-72
2022/01/11 07:44:43;;;;;;;54.70;34.90;;;3.80;99.90;;;;;;5017663;28;20670;-71
2022/01/11 07:47:10;;;;;;;59.35;36.85;;;3.90;99.90;;;;;;5017691;28;20205;-72
2022/01/11 07:49:38;;;;;;;53.97;34.05;;;3.90;99.90;;;;;;5017371;28;20229;-71
2022/01/11 07:52:05;;;;;;;57.67;37.50;;;3.80;99.90;;;;;;5017680;28;20320;-71
2022/01/11 07:54:32;;;;;;;56.75;35.03;;;3.80;99.90;;;;;;5017362;28;20272;-71
2022/01/11 07:56:59;;;;;;;52.78;35.17;;;3.80;99.90;;;;;;5017791;28;20300;-71
2022/01/11 07:59:25;;;;;;;52.63;34.95;;;3.80;99.90;;;;;;5017565;28;20205;-71
2022/01/11 08:01:52;;;;;;;55.45;37.30;;;3.70;99.90;;;;;;5017206;28;20231;-71
2022/01/11 08:04:19;;;;;;;59.35;36.03;;;3.70;99.90;;;;;;5016979;28;20209;-71
2022/01/11 08:06:47;;;;;;;53.88;35.80;;;3.70;99.90;;;;;;5016668;28;20216;-71
2022/01/11 08:09:15;;;;;;;58.22;37.20;;;3.70;99.90;;;;;;5017089;28;20296;-71
2022/01/11 08:11:44;;;;;;;52.42;34.28;;;3.70;99.90;;;;;;5016428;28;20275;-71
2022/01/11 08:14:11;;;;;;;52.28;34.40;;;3.90;99.90;;;;;;5016603;28;20666;-71
2022/01/11 08:16:39;;;;;;;44.55;31.83;;;4.10;99.90;;;;;;5016529;28;20300;-71
2022/01/11 08:19:05;;;;;;;45.83;32.50;;;4.20;99.90;;;;;;5017282;28;20201;-71
2022/01/11 08:21:33;;;;;;;50.42;32.17;;;4.10;99.90;;;;;;5016358;28;20279;-71
2022/01/11 08:24:01;;;;;;;50.53;32.08;;;4.00;99.90;;;;;;5016386;28;20274;-71
2022/01/11 08:26:28;;;;;;;47.08;32.22;;;3.90;99.90;;;;;;5016798;28;20200;-71
2022/01/11 08:28:55;;;;;;;50.97;32.13;;;3.80;99.90;;;;;;5015373;28;20288;-71
2022/01/11 08:31:21;;;;;;;49.83;30.45;;;3.90;99.90;;;;;;5015339;28;20224;-71
2022/01/11 08:33:48;;;;;;;52.38;31.80;;;4.00;99.90;;;;;;5016196;28;20215;-71
2022/01/11 08:36:16;;;;;;;50.88;32.67;;;4.00;99.90;;;;;;5015788;28;20327;-71
2022/01/11 08:38:42;;;;;;;49.75;32.15;;;3.90;99.90;;;;;;5015915;28;20264;-71
2022/01/11 08:41:11;;;;;;;47.33;33.28;;;4.00;99.90;;;;;;5015163;28;20311;-71
2022/01/11 08:43:38;;;;;;;47.72;31.63;;;4.00;99.90;;;;;;5016198;28;20289;-71
2022/01/11 08:46:05;;;;;;;53.78;33.30;;;4.10;99.90;;;;;;5016086;28;20563;-71
2022/01/11 08:48:33;;;;;;;52.10;33.90;;;4.10;99.90;;;;;;5015357;28;20211;-71
2022/01/11 08:50:59;;;;;;;52.58;32.17;;;4.20;99.90;;;;;;5015028;28;20228;-71
2022/01/11 08:53:26;;;;;;;48.38;31.48;;;4.30;99.90;;;;;;5016782;28;20276;-71
2022/01/11 08:55:53;;;;;;;41.55;31.02;;;4.30;99.90;;;;;;5019947;28;20227;-71
2022/01/11 08:58:23;;;;;;;45.40;29.55;;;4.50;99.90;;;;;;5020060;28;20323;-71
2022/01/11 09:00:50;;;;;;;44.67;31.33;;;4.50;99.90;;;;;;5019107;28;20299;-71
2022/01/11 09:03:17;;;;;;;44.97;31.40;;;4.50;99.90;;;;;;5019340;28;20211;-71
2022/01/11 09:05:44;;;;;;;45.40;30.75;;;4.60;99.90;;;;;;5019054;28;20200;-71
2022/01/11 09:08:12;;;;;;;41.63;29.38;;;4.70;99.90;;;;;;5018997;28;20300;-71
2022/01/11 09:10:38;;;;;;;44.90;29.40;;;4.80;99.90;;;;;;5018311;28;20728;-71
2022/01/11 09:13:05;;;;;;;41.58;28.25;;;4.80;99.90;;;;;;5019309;28;20215;-71
2022/01/11 09:15:34;;;;;;;42.65;29.63;;;4.90;99.90;;;;;;5018662;28;20209;-71
2022/01/11 09:18:02;;;;;;;43.67;28.70;;;4.90;99.90;;;;;;5018545;28;20215;-71
2022/01/11 09:20:29;;;;;;;41.92;28.40;;;5.00;99.90;;;;;;5018108;28;20288;-71
2022/01/11 09:22:56;;;;;;;39.55;27.67;;;5.00;99.90;;;;;;5018458;28;20235;-71
2022/01/11 09:25:23;;;;;;;38.88;26.80;;;5.00;99.90;;;;;;5018550;28;20212;-71
2022/01/11 09:27:50;;;;;;;43.03;29.20;;;5.10;99.90;;;;;;5018928;28;20311;-71
2022/01/11 09:30:18;;;;;;;40.58;25.75;;;5.10;99.90;;;;;;5017882;28;20319;-71
2022/01/11 09:32:46;;;;;;;38.28;26.02;;;5.20;99.90;;;;;;5018373;28;20220;-71
2022/01/11 09:35:15;;;;;;;37.95;27.10;;;5.20;99.90;;;;;;5018034;28;20300;-72
2022/01/11 09:37:42;;;;;;;36.30;25.83;;;5.30;99.90;;;;;;5018482;28;20675;-71
2022/01/11 09:40:11;;;;;;;38.85;26.30;;;5.30;99.90;;;;;;5017869;28;20259;-71
2022/01/11 09:42:39;;;;;;;37.78;26.05;;;5.30;99.90;;;;;;5017770;28;20327;-71
2022/01/11 09:45:07;;;;;;;42.63;29.10;;;5.40;99.90;;;;;;5018869;28;20205;-71
2022/01/11 09:47:34;;;;;;;41.22;27.27;;;5.10;99.90;;;;;;5018362;28;20213;-71
2022/01/11 09:50:04;;;;;;;36.80;26.35;;;4.90;99.90;;;;;;5017567;28;20225;-71
2022/01/11 09:52:30;;;;;;;41.65;28.10;;;4.90;99.90;;;;;;5017828;28;20220;-71
2022/01/11 09:54:57;;;;;;;39.08;26.17;;;5.00;99.90;;;;;;5017809;28;20627;-71
2022/01/11 09:57:24;;;;;;;42.72;28.42;;;5.10;99.90;;;;;;5017251;28;20574;-71
2022/01/11 09:59:51;;;;;;;40.58;28.27;;;5.20;99.90;;;;;;5017363;28;20207;-70
2022/01/11 10:02:18;;;;;;;41.40;28.63;;;5.00;99.90;;;;;;5018086;28;20263;-71
2022/01/11 10:04:45;;;;;;;43.80;27.38;;;5.10;99.90;;;;;;5018126;28;20205;-71
2022/01/11 10:07:14;;;;;;;40.65;26.35;;;5.10;99.90;;;;;;5017837;28;20201;-71
2022/01/11 10:09:47;;;;;;;36.35;26.60;;;5.20;99.90;;;;;;5016870;28;20279;-70
2022/01/11 10:12:14;;;;;;;35.47;24.35;;;5.30;99.90;;;;;;5018533;28;20235;-71
2022/01/11 10:14:47;;;;;;;33.85;24.50;;;5.30;99.90;;;;;;5017916;28;20629;-71
2022/01/11 10:17:18;;;;;;;35.95;25.25;;;5.50;99.90;;;;;;5017476;28;20299;-71
2022/01/11 10:19:47;;;;;;;33.78;24.92;;;5.50;99.90;;;;;;5017260;28;20204;-70
2022/01/11 10:22:19;;;;;;;33.97;25.05;;;5.60;99.90;;;;;;5017832;28;20296;-71
2022/01/11 10:24:48;;;;;;;37.65;25.85;;;5.60;99.90;;;;;;5017582;28;20217;-71
2022/01/11 10:27:18;;;;;;;41.63;25.65;;;5.50;99.90;;;;;;5018368;28;20205;-71
2022/01/11 10:29:47;;;;;;;34.80;24.77;;;5.30;99.90;;;;;;5017108;28;20230;-70
2022/01/11 10:32:23;;;;;;;36.17;24.27;;;5.30;99.90;;;;;;5017627;28;20324;-71
2022/01/11 10:34:53;;;;;;;36.00;23.35;;;5.30;99.90;;;;;;5017602;28;20211;-71
2022/01/11 10:37:34;;;;;;;32.95;23.40;;;5.40;99.90;;;;;;5017369;28;20215;-71
2022/01/11 10:40:05;;;;;;;35.13;22.83;;;5.60;99.90;;;;;;5017271;28;20283;-70
2022/01/11 10:42:34;;;;;;;33.10;23.00;;;5.60;99.90;;;;;;5016670;28;20237;-71
2022/01/11 10:45:03;;;;;;;33.40;22.35;;;5.70;99.90;;;;;;5016595;28;20211;-71
2022/01/11 10:47:33;;;;;;;32.63;22.80;;;5.90;99.90;;;;;;5016260;28;20208;-71
2022/01/11 10:50:04;;;;;;;33.20;23.73;;;6.00;99.90;;;;;;5015934;28;20224;-71
2022/01/11 10:52:34;;;;;;;32.35;21.75;;;6.10;99.90;;;;;;5016731;28;20235;-71
2022/01/11 10:55:03;;;;;;;31.52;21.67;;;6.10;99.90;;;;;;5016923;28;20209;-71
2022/01/11 10:57:33;;;;;;;29.23;21.73;;;6.20;99.90;;;;;;5015792;28;20211;-71
2022/01/11 11:00:19;;;;;;;38.47;24.63;;;6.30;99.90;;;;;;5015260;28;20208;-71
2022/01/11 11:02:50;;;;;;;31.20;21.80;;;6.50;99.90;;;;;;5015491;28;20228;-71
2022/01/11 11:05:24;;;;;;;28.65;19.90;;;6.60;99.90;;;;;;5016129;28;20208;-71
2022/01/11 11:08:09;;;;;;;31.40;19.90;;;6.60;99.90;;;;;;5015962;28;20205;-71
2022/01/11 11:10:45;;;;;;;30.05;19.77;;;6.80;99.90;;;;;;5015324;28;20228;-71
2022/01/11 11:13:19;;;;;;;31.02;20.67;;;6.90;99.90;;;;;;5015494;28;20224;-71
2022/01/11 11:15:47;;;;;;;25.23;19.15;;;6.90;99.90;;;;;;5015546;28;20220;-71
2022/01/11 11:18:26;;;;;;;25.65;18.02;;;6.90;99.90;;;;;;5015436;28;20237;-71
2022/01/11 11:20:53;;;;;;;23.65;18.25;;;6.90;99.90;;;;;;5015343;28;20283;-70
2022/01/11 11:23:21;;;;;;;28.05;19.25;;;7.00;99.90;;;;;;5015543;28;20600;-71
2022/01/11 11:25:48;;;;;;;30.30;21.02;;;7.00;99.90;;;;;;5015806;28;20208;-71
2022/01/11 11:28:15;;;;;;;28.92;19.30;;;6.90;99.90;;;;;;5016303;28;20620;-71
2022/01/11 11:30:48;;;;;;;31.33;21.00;;;6.70;99.90;;;;;;5014957;28;20230;-70
2022/01/11 11:33:17;;;;;;;27.80;19.23;;;6.70;99.90;;;;;;5015374;28;20209;-70
2022/01/11 11:35:43;;;;;;;30.67;23.05;;;6.60;99.90;;;;;;5015677;28;20219;-70
2022/01/11 11:38:12;;;;;;;35.97;23.50;;;6.30;99.90;;;;;;5015875;28;20205;-70
2022/01/11 11:40:41;;;;;;;28.52;21.10;;;6.10;99.90;;;;;;5014868;28;20604;-71
2022/01/11 11:43:12;;;;;;;29.63;22.85;;;6.30;99.90;;;;;;5015449;28;20603;-72
2022/01/11 11:45:39;;;;;;;28.08;19.90;;;6.50;99.90;;;;;;5015343;28;20291;-72
2022/01/11 11:48:08;;;;;;;24.90;16.15;;;6.60;99.90;;;;;;5015133;28;20299;-72
2022/01/11 11:50:46;;;;;;;19.55;14.02;;;6.70;99.90;;;;;;5014727;28;20233;-70
2022/01/11 11:53:22;;;;;;;19.45;14.27;;;6.70;99.90;;;;;;5015257;28;20243;-71
2022/01/11 11:55:51;;;;;;;19.10;13.35;;;6.70;99.90;;;;;;5015175;28;20258;-69
2022/01/11 11:58:22;;;;;;;17.15;13.13;;;6.80;99.90;;;;;;5014936;28;20566;-69
2022/01/11 12:00:51;;;;;;;18.73;13.25;;;6.90;99.90;;;;;;5014751;28;20200;-71
2022/01/11 12:03:24;;;;;;;15.85;12.65;;;6.90;99.90;;;;;;5015135;28;20240;-70
2022/01/11 12:05:52;;;;;;;15.68;11.38;;;7.00;99.90;;;;;;5014929;28;20215;-70
2022/01/11 12:08:32;;;;;;;18.30;11.43;;;7.10;99.90;;;;;;5015159;28;20205;-71
2022/01/11 12:11:03;;;;;;;15.75;11.52;;;7.20;99.90;;;;;;5014860;28;20228;-71
2022/01/11 12:13:45;;;;;;;16.05;10.55;;;7.20;99.90;;;;;;5016146;28;20594;-71
2022/01/11 12:16:39;;;;;;;13.18;9.50;;;7.10;99.90;;;;;;5015431;28;20205;-70
2022/01/11 12:19:09;;;;;;;11.60;9.80;;;7.00;99.90;;;;;;5015062;28;20205;-70
2022/01/11 12:21:41;;;;;;;14.02;9.40;;;6.90;99.90;;;;;;5014800;28;20232;-71
2022/01/11 12:24:09;;;;;;;12.10;8.75;;;7.00;99.90;;;;;;5015332;28;20185;-70
2022/01/11 12:26:37;;;;;;;10.57;7.55;;;7.10;99.90;;;;;;5014424;28;20266;-71
2022/01/11 12:29:27;;;;;;;9.10;6.07;;;7.20;99.90;;;;;;5013712;28;20631;-70
2022/01/11 12:31:58;;;;;;;8.70;7.15;;;7.30;99.90;;;;;;5014075;28;20307;-70
2022/01/11 12:34:52;;;;;;;8.23;7.43;;;7.30;99.90;;;;;;5014995;28;20647;-71
2022/01/11 12:37:44;;;;;;;11.43;8.95;;;7.30;99.90;;;;;;5016419;28;20311;-72
2022/01/11 12:40:26;;;;;;;7.28;6.47;;;7.30;99.90;;;;;;5015207;28;20208;-72
2022/01/11 12:43:01;;;;;;;6.43;5.82;;;7.30;99.90;;;;;;5015559;28;20804;-72
2022/01/11 12:46:02;;;;;;;6.70;6.00;;;7.40;99.90;;;;;;5015399;28;20208;-72
2022/01/11 12:48:52;;;;;;;7.13;6.20;;;7.40;99.90;;;;;;5015435;28;20662;-72
2022/01/11 12:51:35;;;;;;;7.07;5.65;;;7.40;99.90;;;;;;5014658;28;20229;-72